sensor_id;sensor_type;location;lat;lon;timestamp;pressure;altitude;pressure_sealevel;temperature;humidity
25084;BME280;13075;55.682;37.564;2023-01-28T00:01:12;100195.53;;;4.75;100.00
25084;BME280;13075;55.682;37.564;2023-01-28T00:03:38;100198.22;;;4.93;100.00
25084;BME280;13075;55.682;37.564;2023-01-28T00:06:10;100199.31;;;5.00;100.00
25084;BME280;13075;55.682;37.564;2023-01-28T00:08:36;100186.19;;;4.98;100.00
25084;BME280;13075;55.682;37.564;2023-01-28T00:11:04;100188.34;;;4.85;100.00
25084;BME280;13075;55.682;37.564;2023-01-28T00:13:31;100193.31;;;4.71;100.00
25084;BME280;13075;55.682;37.564;2023-01-28T00:15:59;100186.91;;;4.36;100.00
25084;BME280;13075;55.682;37.564;2023-01-28T00:18:26;100183.63;;;4.52;100.00
25084;BME280;13075;55.682;37.564;2023-01-28T00:20:59;100190.16;;;4.30;100.00
25084;BME280;13075;55.682;37.564;2023-01-28T00:23:30;100189.16;;;4.31;100.00
25084;BME280;13075;55.682;37.564;2023-01-28T00:26:00;100193.91;;;4.28;100.00
25084;BME280;13075;55.682;37.564;2023-01-28T00:28:26;100196.28;;;4.21;100.00
25084;BME280;13075;55.682;37.564;2023-01-28T00:30:52;100193.41;;;4.05;100.00
25084;BME280;13075;55.682;37.564;2023-01-28T00:33:18;100194.75;;;4.19;100.00
25084;BME280;13075;55.682;37.564;2023-01-28T00:35:45;100196.56;;;4.18;100.00
25084;BME280;13075;55.682;37.564;2023-01-28T00:38:11;100197.91;;;4.41;100.00
25084;BME280;13075;55.682;37.564;2023-01-28T00:40:37;100202.28;;;4.23;100.00
25084;BME280;13075;55.682;37.564;2023-01-28T00:43:02;100193.41;;;4.15;100.00
25084;BME280;13075;55.682;37.564;2023-01-28T00:45:28;100208.72;;;4.11;100.00
25084;BME280;13075;55.682;37.564;2023-01-28T00:47:54;100208.72;;;4.11;100.00
25084;BME280;13075;55.682;37.564;2023-01-28T00:50:20;100205.31;;;4.38;100.00
25084;BME280;13075;55.682;37.564;2023-01-28T00:52:48;100204.47;;;4.37;100.00
25084;BME280;13075;55.682;37.564;2023-01-28T00:55:14;100217.66;;;4.10;100.00
25084;BME280;13075;55.682;37.564;2023-01-28T00:57:40;100213.88;;;4.22;100.00
25084;BME280;13075;55.682;37.564;2023-01-28T01:02:55;100214.38;;;4.26;100.00
25084;BME280;13075;55.682;37.564;2023-01-28T01:05:21;100205.06;;;4.22;100.00
25084;BME280;13075;55.682;37.564;2023-01-28T01:07:46;100208.94;;;4.37;100.00
25084;BME280;13075;55.682;37.564;2023-01-28T01:10:16;100200.03;;;4.38;100.00
25084;BME280;13075;55.682;37.564;2023-01-28T01:12:45;100206.22;;;4.00;100.00
25084;BME280;13075;55.682;37.564;2023-01-28T01:15:10;100211.81;;;4.07;100.00
25084;BME280;13075;55.682;37.564;2023-01-28T01:17:37;100213.91;;;4.13;100.00
25084;BME280;13075;55.682;37.564;2023-01-28T01:20:08;100208.94;;;4.37;100.00
25084;BME280;13075;55.682;37.564;2023-01-28T01:22:35;100205.91;;;4.22;100.00
25084;BME280;13075;55.682;37.564;2023-01-28T01:25:02;100211.09;;;4.14;100.00
25084;BME280;13075;55.682;37.564;2023-01-28T01:27:29;100214.00;;;4.21;100.00
25084;BME280;13075;55.682;37.564;2023-01-28T01:29:57;100205.94;;;4.03;100.00
25084;BME280;13075;55.682;37.564;2023-01-28T01:32:24;100213.59;;;4.16;100.00
25084;BME280;13075;55.682;37.564;2023-01-28T01:34:50;100208.63;;;3.94;100.00
25084;BME280;13075;55.682;37.564;2023-01-28T01:37:16;100211.53;;;3.91;100.00
25084;BME280;13075;55.682;37.564;2023-01-28T01:39:41;100206.97;;;3.83;100.00
25084;BME280;13075;55.682;37.564;2023-01-28T01:42:14;100199.03;;;3.83;100.00
25084;BME280;13075;55.682;37.564;2023-01-28T01:45:11;100202.47;;;4.12;100.00
25084;BME280;13075;55.682;37.564;2023-01-28T01:47:43;100189.53;;;4.00;100.00
25084;BME280;13075;55.682;37.564;2023-01-28T01:50:28;100194.53;;;4.12;100.00
25084;BME280;13075;55.682;37.564;2023-01-28T01:53:00;100192.56;;;3.95;100.00
25084;BME280;13075;55.682;37.564;2023-01-28T01:55:29;100194.53;;;3.93;100.00
25084;BME280;13075;55.682;37.564;2023-01-28T01:57:57;100204.00;;;4.15;100.00
25084;BME280;13075;55.682;37.564;2023-01-28T02:00:26;100202.19;;;4.06;100.00
25084;BME280;13075;55.682;37.564;2023-01-28T02:02:52;100198.47;;;3.89;100.00
25084;BME280;13075;55.682;37.564;2023-01-28T02:05:20;100200.41;;;3.87;100.00
25084;BME280;13075;55.682;37.564;2023-01-28T02:07:49;100203.78;;;3.60;100.00
25084;BME280;13075;55.682;37.564;2023-01-28T02:10:16;100208.94;;;3.71;100.00
25084;BME280;13075;55.682;37.564;2023-01-28T02:12:46;100207.38;;;3.88;100.00
25084;BME280;13075;55.682;37.564;2023-01-28T02:15:21;100197.91;;;3.86;100.00
25084;BME280;13075;55.682;37.564;2023-01-28T02:17:48;100202.78;;;3.81;100.00
25084;BME280;13075;55.682;37.564;2023-01-28T02:20:24;100200.41;;;3.97;100.00
25084;BME280;13075;55.682;37.564;2023-01-28T02:23:02;100213.19;;;4.20;100.00
25084;BME280;13075;55.682;37.564;2023-01-28T02:34:01;100206.53;;;3.78;100.00
25084;BME280;13075;55.682;37.564;2023-01-28T02:39:08;100214.56;;;4.05;100.00
25084;BME280;13075;55.682;37.564;2023-01-28T02:41:42;100217.09;;;4.07;100.00
25084;BME280;13075;55.682;37.564;2023-01-28T02:44:11;100221.25;;;4.19;100.00
25084;BME280;13075;55.682;37.564;2023-01-28T02:46:37;100221.53;;;4.25;100.00
25084;BME280;13075;55.682;37.564;2023-01-28T02:49:29;100208.88;;;4.00;100.00
25084;BME280;13075;55.682;37.564;2023-01-28T02:57:28;100234.09;;;3.47;100.00
25084;BME280;13075;55.682;37.564;2023-01-28T03:00:10;100232.09;;;3.10;100.00
25084;BME280;13075;55.682;37.564;2023-01-28T03:02:56;100234.09;;;3.37;100.00
25084;BME280;13075;55.682;37.564;2023-01-28T03:05:34;100234.38;;;3.34;100.00
25084;BME280;13075;55.682;37.564;2023-01-28T03:08:03;100237.97;;;3.33;100.00
25084;BME280;13075;55.682;37.564;2023-01-28T03:10:52;100240.50;;;3.44;100.00
25084;BME280;13075;55.682;37.564;2023-01-28T03:13:38;100243.03;;;3.55;100.00
25084;BME280;13075;55.682;37.564;2023-01-28T03:16:23;100238.97;;;3.23;100.00
25084;BME280;13075;55.682;37.564;2023-01-28T03:19:07;100241.03;;;3.38;100.00
25084;BME280;13075;55.682;37.564;2023-01-28T03:21:53;100237.28;;;3.41;100.00
25084;BME280;13075;55.682;37.564;2023-01-28T03:24:47;100240.25;;;3.47;100.00
25084;BME280;13075;55.682;37.564;2023-01-28T03:27:41;100238.44;;;3.48;100.00
25084;BME280;13075;55.682;37.564;2023-01-28T03:30:44;100249.41;;;3.43;100.00
25084;BME280;13075;55.682;37.564;2023-01-28T03:33:40;100243.69;;;3.38;100.00
25084;BME280;13075;55.682;37.564;2023-01-28T03:36:25;100244.41;;;3.50;100.00
25084;BME280;13075;55.682;37.564;2023-01-28T03:39:25;100242.41;;;3.23;100.00
25084;BME280;13075;55.682;37.564;2023-01-28T03:42:04;100248.00;;;3.30;100.00
25084;BME280;13075;55.682;37.564;2023-01-28T03:44:30;100249.41;;;3.43;100.00
25084;BME280;13075;55.682;37.564;2023-01-28T03:47:21;100251.19;;;3.33;100.00
25084;BME280;13075;55.682;37.564;2023-01-28T03:49:50;100251.03;;;3.15;100.00
25084;BME280;13075;55.682;37.564;2023-01-28T03:52:30;100242.56;;;3.31;100.00
25084;BME280;13075;55.682;37.564;2023-01-28T03:55:10;100247.75;;;3.42;100.00
25084;BME280;13075;55.682;37.564;2023-01-28T03:57:40;100238.13;;;3.32;100.00
25084;BME280;13075;55.682;37.564;2023-01-28T04:00:06;100246.31;;;3.19;100.00
25084;BME280;13075;55.682;37.564;2023-01-28T04:02:39;100241.47;;;3.43;100.00
25084;BME280;13075;55.682;37.564;2023-01-28T04:05:07;100238.16;;;3.60;100.00
25084;BME280;13075;55.682;37.564;2023-01-28T04:07:39;100248.59;;;3.62;100.00
25084;BME280;13075;55.682;37.564;2023-01-28T04:10:12;100239.25;;;3.39;100.00
25084;BME280;13075;55.682;37.564;2023-01-28T04:12:47;100245.38;;;3.49;100.00
25084;BME280;13075;55.682;37.564;2023-01-28T04:15:17;100242.03;;;3.37;100.00
25084;BME280;13075;55.682;37.564;2023-01-28T04:17:45;100243.84;;;3.46;100.00
25084;BME280;13075;55.682;37.564;2023-01-28T04:20:16;100244.38;;;3.31;100.00
25084;BME280;13075;55.682;37.564;2023-01-28T04:22:42;100250.69;;;3.58;100.00
25084;BME280;13075;55.682;37.564;2023-01-28T04:25:09;100249.44;;;3.53;100.00
25084;BME280;13075;55.682;37.564;2023-01-28T04:27:35;100250.81;;;2.88;100.00
25084;BME280;13075;55.682;37.564;2023-01-28T04:30:10;100253.47;;;2.88;100.00
25084;BME280;13075;55.682;37.564;2023-01-28T04:32:47;100240.44;;;3.06;100.00
25084;BME280;13075;55.682;37.564;2023-01-28T04:35:29;100241.31;;;3.26;100.00
25084;BME280;13075;55.682;37.564;2023-01-28T04:38:10;100245.72;;;2.96;100.00
25084;BME280;13075;55.682;37.564;2023-01-28T04:41:08;100238.66;;;3.16;100.00
25084;BME280;13075;55.682;37.564;2023-01-28T04:43:34;100238.63;;;3.06;100.00
25084;BME280;13075;55.682;37.564;2023-01-28T04:46:18;100249.91;;;3.08;100.00
25084;BME280;13075;55.682;37.564;2023-01-28T04:49:08;100255.03;;;3.00;100.00
25084;BME280;13075;55.682;37.564;2023-01-28T04:52:05;100257.56;;;3.02;100.00
25084;BME280;13075;55.682;37.564;2023-01-28T04:54:57;100247.28;;;3.18;100.00
25084;BME280;13075;55.682;37.564;2023-01-28T04:57:25;100247.13;;;3.10;100.00
25084;BME280;13075;55.682;37.564;2023-01-28T04:59:51;100240.28;;;2.98;100.00
25084;BME280;13075;55.682;37.564;2023-01-28T05:02:16;100256.50;;;2.84;100.00
25084;BME280;13075;55.682;37.564;2023-01-28T05:04:43;100264.75;;;3.00;100.00
25084;BME280;13075;55.682;37.564;2023-01-28T05:07:20;100260.25;;;2.81;100.00
25084;BME280;13075;55.682;37.564;2023-01-28T05:09:45;100263.97;;;2.79;100.00
25084;BME280;13075;55.682;37.564;2023-01-28T05:12:11;100264.63;;;3.01;100.00
25084;BME280;13075;55.682;37.564;2023-01-28T05:14:38;100259.78;;;3.06;100.00
25084;BME280;13075;55.682;37.564;2023-01-28T05:17:06;100268.56;;;3.07;100.00
25084;BME280;13075;55.682;37.564;2023-01-28T05:19:32;100263.41;;;3.15;100.00
25084;BME280;13075;55.682;37.564;2023-01-28T05:21:58;100270.81;;;3.21;100.00
25084;BME280;13075;55.682;37.564;2023-01-28T05:24:46;100275.38;;;3.09;100.00
25084;BME280;13075;55.682;37.564;2023-01-28T05:27:12;100270.53;;;3.14;100.00
25084;BME280;13075;55.682;37.564;2023-01-28T05:29:39;100275.66;;;3.06;100.00
25084;BME280;13075;55.682;37.564;2023-01-28T05:32:04;100278.03;;;3.19;100.00
25084;BME280;13075;55.682;37.564;2023-01-28T05:34:30;100279.16;;;3.17;100.00
25084;BME280;13075;55.682;37.564;2023-01-28T05:36:59;100272.19;;;3.15;100.00
25084;BME280;13075;55.682;37.564;2023-01-28T05:39:30;100277.63;;;3.24;100.00
25084;BME280;13075;55.682;37.564;2023-01-28T05:41:56;100277.34;;;3.17;100.00
25084;BME280;13075;55.682;37.564;2023-01-28T05:44:22;100266.47;;;3.20;100.00
25084;BME280;13075;55.682;37.564;2023-01-28T05:47:17;100272.59;;;3.21;100.00
25084;BME280;13075;55.682;37.564;2023-01-28T05:50:01;100276.53;;;3.26;100.00
25084;BME280;13075;55.682;37.564;2023-01-28T05:52:35;100271.22;;;3.26;100.00
25084;BME280;13075;55.682;37.564;2023-01-28T05:55:01;100282.22;;;3.12;100.00
25084;BME280;13075;55.682;37.564;2023-01-28T05:57:26;100271.19;;;3.07;100.00
25084;BME280;13075;55.682;37.564;2023-01-28T05:59:52;100282.06;;;3.23;100.00
25084;BME280;13075;55.682;37.564;2023-01-28T06:02:17;100279.13;;;3.07;100.00
25084;BME280;13075;55.682;37.564;2023-01-28T06:04:43;100276.84;;;2.93;100.00
25084;BME280;13075;55.682;37.564;2023-01-28T06:07:09;100276.69;;;2.94;100.00
25084;BME280;13075;55.682;37.564;2023-01-28T06:09:38;100276.34;;;3.08;100.00
25084;BME280;13075;55.682;37.564;2023-01-28T06:12:04;100293.56;;;3.03;100.00
25084;BME280;13075;55.682;37.564;2023-01-28T06:14:38;100285.91;;;3.00;100.00
25084;BME280;13075;55.682;37.564;2023-01-28T06:17:24;100291.34;;;2.98;100.00
25084;BME280;13075;55.682;37.564;2023-01-28T06:20:04;100291.97;;;3.21;100.00
25084;BME280;13075;55.682;37.564;2023-01-28T06:22:31;100296.41;;;3.21;100.00
25084;BME280;13075;55.682;37.564;2023-01-28T06:24:57;100290.91;;;3.03;100.00
25084;BME280;13075;55.682;37.564;2023-01-28T06:27:22;100302.28;;;3.24;100.00
25084;BME280;13075;55.682;37.564;2023-01-28T06:29:48;100298.75;;;3.14;100.00
25084;BME280;13075;55.682;37.564;2023-01-28T06:32:15;100301.53;;;3.12;100.00
25084;BME280;13075;55.682;37.564;2023-01-28T06:34:40;100296.66;;;3.08;100.00
25084;BME280;13075;55.682;37.564;2023-01-28T06:37:06;100301.56;;;3.22;100.00
25084;BME280;13075;55.682;37.564;2023-01-28T06:39:32;100294.31;;;3.14;100.00
25084;BME280;13075;55.682;37.564;2023-01-28T06:41:58;100293.47;;;3.14;100.00
25084;BME280;13075;55.682;37.564;2023-01-28T06:44:24;100301.09;;;2.77;100.00
25084;BME280;13075;55.682;37.564;2023-01-28T06:46:50;100298.75;;;3.04;100.00
25084;BME280;13075;55.682;37.564;2023-01-28T06:49:16;100305.19;;;2.81;100.00
25084;BME280;13075;55.682;37.564;2023-01-28T06:51:41;100294.06;;;2.87;100.00
25084;BME280;13075;55.682;37.564;2023-01-28T06:54:07;100304.38;;;2.60;100.00
25084;BME280;13075;55.682;37.564;2023-01-28T06:56:33;100305.03;;;2.32;100.00
25084;BME280;13075;55.682;37.564;2023-01-28T06:58:58;100306.38;;;2.26;100.00
25084;BME280;13075;55.682;37.564;2023-01-28T07:01:24;100306.81;;;2.31;100.00
25084;BME280;13075;55.682;37.564;2023-01-28T07:03:50;100304.44;;;2.49;100.00
25084;BME280;13075;55.682;37.564;2023-01-28T07:06:15;100312.88;;;2.43;100.00
25084;BME280;13075;55.682;37.564;2023-01-28T07:08:41;100317.94;;;2.35;100.00
25084;BME280;13075;55.682;37.564;2023-01-28T07:11:07;100313.91;;;2.31;100.00
25084;BME280;13075;55.682;37.564;2023-01-28T07:13:33;100319.31;;;2.29;100.00
25084;BME280;13075;55.682;37.564;2023-01-28T07:15:59;100320.34;;;2.38;100.00
25084;BME280;13075;55.682;37.564;2023-01-28T07:18:24;100319.44;;;2.28;100.00
25084;BME280;13075;55.682;37.564;2023-01-28T07:20:50;100318.09;;;2.33;100.00
25084;BME280;13075;55.682;37.564;2023-01-28T07:23:16;100321.97;;;2.29;100.00
25084;BME280;13075;55.682;37.564;2023-01-28T07:25:41;100323.16;;;2.46;100.00
25084;BME280;13075;55.682;37.564;2023-01-28T07:28:07;100315.94;;;2.48;100.00
25084;BME280;13075;55.682;37.564;2023-01-28T07:30:33;100318.09;;;2.54;100.00
25084;BME280;13075;55.682;37.564;2023-01-28T07:32:59;100324.00;;;2.26;100.00
25084;BME280;13075;55.682;37.564;2023-01-28T07:35:26;100323.75;;;2.29;100.00
25084;BME280;13075;55.682;37.564;2023-01-28T07:37:52;100327.00;;;1.69;100.00
25084;BME280;13075;55.682;37.564;2023-01-28T07:40:18;100320.22;;;2.19;100.00
25084;BME280;13075;55.682;37.564;2023-01-28T07:42:44;100310.13;;;2.24;100.00
25084;BME280;13075;55.682;37.564;2023-01-28T07:45:10;100319.25;;;2.40;100.00
25084;BME280;13075;55.682;37.564;2023-01-28T07:47:36;100308.63;;;2.10;100.00
25084;BME280;13075;55.682;37.564;2023-01-28T07:50:02;100316.03;;;1.84;100.00
25084;BME280;13075;55.682;37.564;2023-01-28T07:52:28;100316.22;;;2.04;100.00
25084;BME280;13075;55.682;37.564;2023-01-28T07:54:53;100311.91;;;2.44;100.00
25084;BME280;13075;55.682;37.564;2023-01-28T07:57:19;100310.22;;;2.43;100.00
25084;BME280;13075;55.682;37.564;2023-01-28T07:59:48;100316.75;;;2.39;100.00
25084;BME280;13075;55.682;37.564;2023-01-28T08:02:14;100313.50;;;2.15;100.00
25084;BME280;13075;55.682;37.564;2023-01-28T08:04:40;100317.44;;;2.20;100.00
25084;BME280;13075;55.682;37.564;2023-01-28T08:07:05;100314.53;;;2.23;100.00
25084;BME280;13075;55.682;37.564;2023-01-28T08:09:31;100318.16;;;2.43;100.00
25084;BME280;13075;55.682;37.564;2023-01-28T08:11:59;100307.78;;;2.51;100.00
25084;BME280;13075;55.682;37.564;2023-01-28T08:14:26;100314.50;;;2.55;100.00
25084;BME280;13075;55.682;37.564;2023-01-28T08:16:52;100317.84;;;2.87;100.00
25084;BME280;13075;55.682;37.564;2023-01-28T08:19:17;100315.63;;;2.62;100.00
25084;BME280;13075;55.682;37.564;2023-01-28T08:21:49;100305.13;;;2.51;100.00
25084;BME280;13075;55.682;37.564;2023-01-28T08:24:15;100311.31;;;2.61;100.00
25084;BME280;13075;55.682;37.564;2023-01-28T08:26:41;100295.47;;;2.61;100.00
25084;BME280;13075;55.682;37.564;2023-01-28T08:29:07;100308.38;;;2.85;100.00
25084;BME280;13075;55.682;37.564;2023-01-28T08:31:33;100309.47;;;2.82;100.00
25084;BME280;13075;55.682;37.564;2023-01-28T08:33:59;100308.56;;;2.93;100.00
25084;BME280;13075;55.682;37.564;2023-01-28T08:36:24;100311.41;;;2.80;100.00
25084;BME280;13075;55.682;37.564;2023-01-28T08:38:53;100316.72;;;2.60;100.00
25084;BME280;13075;55.682;37.564;2023-01-28T08:41:22;100314.72;;;2.73;100.00
25084;BME280;13075;55.682;37.564;2023-01-28T08:43:48;100315.34;;;2.86;100.00
25084;BME280;13075;55.682;37.564;2023-01-28T08:46:14;100311.22;;;2.72;100.00
25084;BME280;13075;55.682;37.564;2023-01-28T08:48:40;100309.00;;;2.68;100.00
25084;BME280;13075;55.682;37.564;2023-01-28T08:51:05;100314.72;;;2.73;100.00
25084;BME280;13075;55.682;37.564;2023-01-28T08:53:31;100304.41;;;2.70;100.00
25084;BME280;13075;55.682;37.564;2023-01-28T08:55:57;100299.97;;;2.70;100.00
25084;BME280;13075;55.682;37.564;2023-01-28T08:58:22;100299.38;;;2.67;100.00
25084;BME280;13075;55.682;37.564;2023-01-28T09:00:49;100302.25;;;2.84;100.00
25084;BME280;13075;55.682;37.564;2023-01-28T09:03:15;100300.59;;;2.83;100.00
25084;BME280;13075;55.682;37.564;2023-01-28T09:05:41;100288.88;;;3.06;100.00
25084;BME280;13075;55.682;37.564;2023-01-28T09:08:09;100295.03;;;3.26;100.00
25084;BME280;13075;55.682;37.564;2023-01-28T09:10:35;100297.84;;;2.94;100.00
25084;BME280;13075;55.682;37.564;2023-01-28T09:13:07;100299.41;;;2.76;100.00
25084;BME280;13075;55.682;37.564;2023-01-28T09:15:33;100297.41;;;2.59;100.00
25084;BME280;13075;55.682;37.564;2023-01-28T09:17:59;100296.03;;;2.95;100.00
25084;BME280;13075;55.682;37.564;2023-01-28T09:20:25;100295.41;;;2.82;100.00
25084;BME280;13075;55.682;37.564;2023-01-28T09:22:51;100288.41;;;2.71;100.00
25084;BME280;13075;55.682;37.564;2023-01-28T09:25:17;100286.50;;;2.73;100.00
25084;BME280;13075;55.682;37.564;2023-01-28T09:27:42;100285.78;;;2.71;100.00
25084;BME280;13075;55.682;37.564;2023-01-28T09:30:08;100290.25;;;2.71;100.00
25084;BME280;13075;55.682;37.564;2023-01-28T09:32:35;100275.66;;;3.06;100.00
25084;BME280;13075;55.682;37.564;2023-01-28T09:35:00;100282.50;;;3.28;100.00
25084;BME280;13075;55.682;37.564;2023-01-28T09:37:26;100280.84;;;3.27;100.00
25084;BME280;13075;55.682;37.564;2023-01-28T09:39:52;100282.66;;;3.36;100.00
25084;BME280;13075;55.682;37.564;2023-01-28T09:47:49;100270.38;;;3.16;100.00
25084;BME280;13075;55.682;37.564;2023-01-28T09:50:30;100282.50;;;3.28;100.00
25084;BME280;13075;55.682;37.564;2023-01-28T09:53:02;100268.03;;;3.23;100.00
25084;BME280;13075;55.682;37.564;2023-01-28T09:55:43;100270.09;;;3.09;100.00
25084;BME280;13075;55.682;37.564;2023-01-28T09:58:15;100270.19;;;3.48;100.00
25084;BME280;13075;55.682;37.564;2023-01-28T10:04:05;100261.44;;;3.66;100.00
25084;BME280;13075;55.682;37.564;2023-01-28T10:15:04;100251.25;;;3.81;100.00
25084;BME280;13075;55.682;37.564;2023-01-28T10:17:47;100254.03;;;3.70;100.00
25084;BME280;13075;55.682;37.564;2023-01-28T10:20:19;100246.50;;;3.65;100.00
25084;BME280;13075;55.682;37.564;2023-01-28T10:25:31;100250.84;;;4.05;100.00
25084;BME280;13075;55.682;37.564;2023-01-28T10:27:57;100241.50;;;3.91;100.00
25084;BME280;13075;55.682;37.564;2023-01-28T10:30:27;100239.56;;;3.84;100.00
25084;BME280;13075;55.682;37.564;2023-01-28T10:33:13;100244.16;;;3.82;100.00
25084;BME280;13075;55.682;37.564;2023-01-28T10:35:41;100236.59;;;4.06;100.00
25084;BME280;13075;55.682;37.564;2023-01-28T10:38:12;100225.06;;;3.59;100.00
25084;BME280;13075;55.682;37.564;2023-01-28T10:40:40;100232.03;;;3.79;100.00
25084;BME280;13075;55.682;37.564;2023-01-28T10:43:06;100230.75;;;3.93;100.00
25084;BME280;13075;55.682;37.564;2023-01-28T10:46:10;100231.00;;;4.28;100.00
25084;BME280;13075;55.682;37.564;2023-01-28T10:48:39;100226.16;;;4.04;100.00
25084;BME280;13075;55.682;37.564;2023-01-28T10:51:07;100228.13;;;3.83;100.00
25084;BME280;13075;55.682;37.564;2023-01-28T10:53:34;100227.28;;;3.73;100.00
25084;BME280;13075;55.682;37.564;2023-01-28T10:56:01;100224.03;;;4.08;100.00
25084;BME280;13075;55.682;37.564;2023-01-28T10:58:30;100219.94;;;3.76;100.00
25084;BME280;13075;55.682;37.564;2023-01-28T11:00:58;100217.97;;;3.78;100.00
25084;BME280;13075;55.682;37.564;2023-01-28T11:03:25;100211.00;;;3.68;100.00
25084;BME280;13075;55.682;37.564;2023-01-28T11:05:56;100212.13;;;3.75;100.00
25084;BME280;13075;55.682;37.564;2023-01-28T11:08:24;100211.69;;;3.70;100.00
25084;BME280;13075;55.682;37.564;2023-01-28T11:10:51;100207.38;;;3.78;100.00
25084;BME280;13075;55.682;37.564;2023-01-28T11:13:21;100208.88;;;4.00;100.00
25084;BME280;13075;55.682;37.564;2023-01-28T11:18:27;100196.94;;;3.87;100.00
25084;BME280;13075;55.682;37.564;2023-01-28T11:20:56;100191.34;;;3.80;100.00
25084;BME280;13075;55.682;37.564;2023-01-28T11:23:26;100197.22;;;3.74;100.00
25084;BME280;13075;55.682;37.564;2023-01-28T11:26:03;100197.91;;;3.86;100.00
25084;BME280;13075;55.682;37.564;2023-01-28T11:28:30;100202.75;;;4.00;100.00
25084;BME280;13075;55.682;37.564;2023-01-28T11:30:58;100199.84;;;3.93;100.00
25084;BME280;13075;55.682;37.564;2023-01-28T11:33:44;100202.34;;;4.04;100.00
25084;BME280;13075;55.682;37.564;2023-01-28T11:36:48;100200.13;;;3.81;100.00
25084;BME280;13075;55.682;37.564;2023-01-28T11:39:24;100197.09;;;3.66;100.00
25084;BME280;13075;55.682;37.564;2023-01-28T11:41:53;100186.09;;;3.70;100.00
25084;BME280;13075;55.682;37.564;2023-01-28T11:44:24;100191.91;;;3.93;100.00
25084;BME280;13075;55.682;37.564;2023-01-28T11:50:17;100189.09;;;4.04;100.00
25084;BME280;13075;55.682;37.564;2023-01-28T11:58:32;100172.56;;;3.83;100.00
25084;BME280;13075;55.682;37.564;2023-01-28T12:03:49;100167.84;;;4.33;100.00
25084;BME280;13075;55.682;37.564;2023-01-28T12:12:17;100150.34;;;4.13;100.00
25084;BME280;13075;55.682;37.564;2023-01-28T12:17:37;100153.19;;;4.29;100.00
25084;BME280;13075;55.682;37.564;2023-01-28T12:20:23;100155.13;;;4.00;100.00
25084;BME280;13075;55.682;37.564;2023-01-28T12:31:41;100149.69;;;3.82;100.00
25084;BME280;13075;55.682;37.564;2023-01-28T12:40:01;100149.28;;;3.77;100.00
25084;BME280;13075;55.682;37.564;2023-01-28T12:42:55;100150.91;;;4.07;100.00
25084;BME280;13075;55.682;37.564;2023-01-28T12:45:37;100140.44;;;4.15;100.00
25084;BME280;13075;55.682;37.564;2023-01-28T12:50:59;100139.03;;;3.74;100.00
25084;BME280;13075;55.682;37.564;2023-01-28T12:53:51;100141.78;;;3.72;100.00
25084;BME280;13075;55.682;37.564;2023-01-28T12:56:28;100134.25;;;3.77;100.00
25084;BME280;13075;55.682;37.564;2023-01-28T12:58:56;100136.06;;;3.87;100.00
25084;BME280;13075;55.682;37.564;2023-01-28T13:01:29;100122.97;;;3.75;100.00
25084;BME280;13075;55.682;37.564;2023-01-28T13:04:35;100132.81;;;3.93;100.00
25084;BME280;13075;55.682;37.564;2023-01-28T13:07:08;100131.06;;;3.84;100.00
25084;BME280;13075;55.682;37.564;2023-01-28T13:09:37;100129.38;;;3.83;100.00
25084;BME280;13075;55.682;37.564;2023-01-28T13:12:09;100130.66;;;3.59;100.00
25084;BME280;13075;55.682;37.564;2023-01-28T13:14:36;100135.78;;;3.80;100.00
25084;BME280;13075;55.682;37.564;2023-01-28T13:17:22;100123.66;;;3.77;100.00
25084;BME280;13075;55.682;37.564;2023-01-28T13:19:48;100134.41;;;3.76;100.00
25084;BME280;13075;55.682;37.564;2023-01-28T13:22:31;100134.97;;;3.70;100.00
25084;BME280;13075;55.682;37.564;2023-01-28T13:25:20;100137.06;;;3.76;100.00
25084;BME280;13075;55.682;37.564;2023-01-28T13:28:00;100138.78;;;3.48;100.00
25084;BME280;13075;55.682;37.564;2023-01-28T13:30:28;100132.84;;;3.83;100.00
25084;BME280;13075;55.682;37.564;2023-01-28T13:33:05;100122.84;;;3.67;100.00
25084;BME280;13075;55.682;37.564;2023-01-28T13:35:39;100128.19;;;3.48;100.00
25084;BME280;13075;55.682;37.564;2023-01-28T13:38:24;100131.78;;;3.57;100.00
25084;BME280;13075;55.682;37.564;2023-01-28T13:40:58;100126.78;;;3.63;100.00
25084;BME280;13075;55.682;37.564;2023-01-28T13:46:06;100124.91;;;3.83;100.00
25084;BME280;13075;55.682;37.564;2023-01-28T13:48:51;100125.09;;;3.62;100.00
25084;BME280;13075;55.682;37.564;2023-01-28T13:51:28;100119.94;;;3.70;100.00
25084;BME280;13075;55.682;37.564;2023-01-28T13:53:59;100118.44;;;3.58;100.00
25084;BME280;13075;55.682;37.564;2023-01-28T13:56:34;100118.16;;;3.52;100.00
25084;BME280;13075;55.682;37.564;2023-01-28T13:59:21;100111.88;;;3.62;100.00
25084;BME280;13075;55.682;37.564;2023-01-28T14:10:07;100101.78;;;3.85;100.00
25084;BME280;13075;55.682;37.564;2023-01-28T14:15:53;100101.47;;;3.23;100.00
25084;BME280;13075;55.682;37.564;2023-01-28T14:18:28;100091.56;;;3.44;100.00
25084;BME280;13075;55.682;37.564;2023-01-28T14:21:00;100084.56;;;3.71;100.00
25084;BME280;13075;55.682;37.564;2023-01-28T14:23:26;100096.72;;;3.45;100.00
25084;BME280;13075;55.682;37.564;2023-01-28T14:31:38;100095.59;;;3.57;100.00
25084;BME280;13075;55.682;37.564;2023-01-28T14:34:23;100093.72;;;3.77;100.00
25084;BME280;13075;55.682;37.564;2023-01-28T14:36:53;100096.84;;;3.44;100.00
25084;BME280;13075;55.682;37.564;2023-01-28T14:39:27;100089.09;;;3.33;100.00
25084;BME280;13075;55.682;37.564;2023-01-28T14:41:55;100089.63;;;3.46;100.00